createdAt,value
2023-10-26T00:02:16.777Z,73.08
2023-10-26T00:04:45.003Z,73.28
2023-10-26T00:07:13.111Z,73.55
2023-10-26T00:09:40.966Z,73.59
2023-10-26T00:12:08.793Z,73.65
2023-10-26T00:14:37.018Z,73.98
2023-10-26T00:17:05.211Z,74.23
2023-10-26T00:19:34.402Z,74.33
2023-10-26T00:22:02.234Z,74.10
2023-10-26T00:24:31.065Z,74.10
2023-10-26T00:27:00.235Z,74.06
2023-10-26T00:29:28.322Z,74.06
2023-10-26T00:31:57.522Z,74.16
2023-10-26T00:34:25.431Z,74.73
2023-10-26T00:36:53.272Z,74.85
2023-10-26T00:39:21.241Z,74.71
2023-10-26T00:41:53.124Z,74.72
2023-10-26T00:44:21.824Z,74.42
2023-10-26T00:46:50.439Z,75.31
2023-10-26T00:49:21.614Z,75.80
2023-10-26T00:51:56.729Z,77.29
2023-10-26T00:54:25.037Z,78.31
2023-10-26T00:56:53.915Z,78.69
2023-10-26T00:59:22.083Z,78.91
2023-10-26T01:01:51.071Z,79.17
2023-10-26T01:04:19.044Z,79.59
2023-10-26T01:06:46.918Z,79.51
2023-10-26T01:09:16.223Z,79.06
2023-10-26T01:11:45.129Z,79.17
2023-10-26T01:14:13.502Z,79.79
2023-10-26T01:16:41.646Z,79.78
2023-10-26T01:19:10.939Z,79.82
2023-10-26T01:21:52.025Z,80.13
2023-10-26T01:24:21.638Z,80.30
2023-10-26T01:26:51.149Z,80.28
2023-10-26T01:29:20.835Z,80.37
2023-10-26T01:31:49.646Z,80.49
2023-10-26T01:34:17.486Z,80.80
2023-10-26T01:36:45.330Z,80.66
2023-10-26T01:39:15.646Z,80.53
2023-10-26T01:41:44.491Z,80.72
2023-10-26T01:44:12.667Z,80.65
2023-10-26T01:46:40.497Z,80.47
2023-10-26T01:49:08.425Z,80.34
2023-10-26T01:51:36.216Z,80.15
2023-10-26T01:54:04.159Z,80.13
2023-10-26T01:56:32.512Z,79.98
2023-10-26T01:59:00.418Z,79.85
2023-10-26T02:01:28.877Z,79.67
2023-10-26T02:03:56.796Z,79.52
2023-10-26T02:06:24.800Z,79.11
2023-10-26T02:08:52.891Z,78.80
2023-10-26T02:11:21.033Z,78.43
2023-10-26T02:13:49.152Z,78.37
2023-10-26T02:16:19.222Z,78.44
2023-10-26T02:18:47.443Z,78.31
2023-10-26T02:21:15.472Z,78.49
2023-10-26T02:23:45.216Z,78.44
2023-10-26T02:26:13.184Z,78.28
2023-10-26T02:28:41.336Z,78.14
2023-10-26T02:31:09.250Z,78.18
2023-10-26T02:33:37.169Z,78.22
2023-10-26T02:36:07.931Z,78.39
2023-10-26T02:38:35.971Z,78.82
2023-10-26T02:41:05.312Z,79.56
2023-10-26T02:43:33.242Z,79.97
2023-10-26T02:46:02.652Z,79.76
2023-10-26T02:48:30.762Z,79.76
2023-10-26T02:50:58.826Z,79.49
2023-10-26T02:53:26.966Z,79.29
2023-10-26T02:55:55.459Z,79.37
2023-10-26T02:58:23.418Z,79.32
2023-10-26T03:00:51.278Z,78.78
2023-10-26T03:03:19.346Z,78.54
2023-10-26T03:05:47.363Z,78.57
2023-10-26T03:08:15.392Z,78.68
2023-10-26T03:10:43.625Z,78.85
2023-10-26T03:13:12.984Z,79.10
2023-10-26T03:15:40.809Z,79.37
2023-10-26T03:18:08.761Z,79.93
2023-10-26T03:20:36.881Z,80.47
2023-10-26T03:23:05.460Z,80.78
2023-10-26T03:25:33.439Z,80.90
2023-10-26T03:28:01.284Z,81.32
2023-10-26T03:30:29.416Z,81.81
2023-10-26T03:32:57.595Z,82.02
2023-10-26T03:35:25.581Z,82.13
2023-10-26T03:37:53.624Z,82.42
2023-10-26T03:40:22.063Z,82.52
2023-10-26T03:42:49.900Z,82.52
2023-10-26T03:45:17.850Z,82.72
2023-10-26T03:47:46.717Z,82.83
2023-10-26T03:50:14.898Z,83.01
2023-10-26T03:52:42.812Z,82.88
2023-10-26T03:55:10.640Z,82.72
2023-10-26T03:57:38.887Z,82.74
2023-10-26T04:00:07.195Z,83.28
2023-10-26T04:02:43.827Z,83.45
2023-10-26T04:05:12.099Z,83.35
2023-10-26T04:07:40.998Z,82.84
2023-10-26T04:10:09.607Z,82.63
2023-10-26T04:12:37.479Z,82.97
2023-10-26T04:15:05.967Z,83.36
2023-10-26T04:17:33.960Z,83.72
2023-10-26T04:20:01.858Z,84.17
2023-10-26T04:22:29.829Z,84.04
2023-10-26T04:24:57.812Z,84.32
2023-10-26T04:27:26.226Z,84.32
2023-10-26T04:29:54.334Z,84.51
2023-10-26T04:32:22.850Z,84.96
2023-10-26T04:34:50.924Z,84.96
2023-10-26T04:37:19.005Z,84.63
2023-10-26T04:39:47.075Z,84.49
2023-10-26T04:42:15.022Z,83.82
2023-10-26T04:44:43.347Z,83.94
2023-10-26T04:47:11.495Z,84.54
2023-10-26T04:49:39.369Z,84.82
2023-10-26T04:52:07.170Z,85.35
2023-10-26T04:54:35.207Z,85.56
2023-10-26T04:57:03.446Z,85.20
2023-10-26T04:59:31.338Z,85.61
2023-10-26T05:01:59.198Z,85.73
2023-10-26T05:04:27.390Z,85.48
2023-10-26T05:06:55.626Z,85.27
2023-10-26T05:09:23.774Z,85.08
2023-10-26T05:11:51.892Z,85.22
2023-10-26T05:14:19.894Z,85.17
2023-10-26T05:16:48.028Z,84.56
2023-10-26T05:19:15.874Z,84.08
2023-10-26T05:21:43.867Z,83.62
2023-10-26T05:24:11.962Z,83.49
2023-10-26T05:26:39.827Z,83.42
2023-10-26T05:29:07.972Z,83.42
2023-10-26T05:31:35.996Z,83.60
2023-10-26T05:34:03.926Z,83.85
2023-10-26T05:36:32.006Z,83.79
2023-10-26T05:39:00.163Z,84.01
2023-10-26T05:41:28.429Z,84.13
2023-10-26T05:43:56.312Z,84.76
2023-10-26T05:46:24.269Z,85.42
2023-10-26T05:48:52.362Z,85.90
2023-10-26T05:51:20.422Z,86.22
2023-10-26T05:53:48.483Z,86.02
2023-10-26T05:56:16.561Z,85.99
2023-10-26T05:58:44.830Z,86.14
2023-10-26T06:01:12.904Z,86.77
2023-10-26T06:03:40.905Z,86.89
2023-10-26T06:06:09.060Z,86.72
2023-10-26T06:08:38.246Z,86.83
2023-10-26T06:11:06.306Z,86.89
2023-10-26T06:13:34.310Z,86.41
2023-10-26T06:16:02.366Z,85.64
2023-10-26T06:18:30.268Z,85.05
2023-10-26T06:20:59.430Z,85.08
2023-10-26T06:23:29.275Z,84.19
2023-10-26T06:25:58.466Z,83.98
2023-10-26T06:28:27.118Z,84.88
2023-10-26T06:30:55.602Z,85.29
2023-10-26T06:33:24.305Z,85.26
2023-10-26T06:35:52.384Z,86.18
2023-10-26T06:38:20.269Z,87.02
2023-10-26T06:40:48.604Z,87.17
2023-10-26T06:43:16.613Z,86.55
2023-10-26T06:45:44.679Z,86.93
2023-10-26T06:48:15.117Z,86.43
2023-10-26T06:50:44.370Z,87.04
2023-10-26T06:53:15.529Z,86.12
2023-10-26T06:55:44.115Z,85.52
2023-10-26T06:58:11.961Z,86.20
2023-10-26T07:00:40.070Z,85.53
2023-10-26T07:03:08.747Z,87.22
2023-10-26T07:05:36.897Z,88.04
2023-10-26T07:08:05.291Z,88.14
2023-10-26T07:10:33.357Z,87.85
2023-10-26T07:13:01.314Z,87.69
2023-10-26T07:15:29.550Z,87.43
2023-10-26T07:17:57.564Z,87.44
2023-10-26T07:20:25.511Z,86.75
2023-10-26T07:22:54.223Z,86.78
2023-10-26T07:25:22.018Z,86.55
2023-10-26T07:27:50.003Z,86.48
2023-10-26T07:30:18.018Z,86.87
2023-10-26T07:32:46.266Z,86.53
2023-10-26T07:35:16.253Z,86.60
2023-10-26T07:40:35.112Z,86.53
2023-10-26T07:43:03.178Z,85.87
2023-10-26T07:45:31.086Z,85.97
2023-10-26T07:50:47.412Z,85.23
2023-10-26T07:53:16.350Z,84.17
2023-10-26T07:55:47.573Z,83.77
2023-10-26T07:58:15.666Z,83.47
2023-10-26T08:00:43.571Z,82.87
2023-10-26T08:03:11.510Z,83.43
2023-10-26T08:05:39.619Z,83.11
2023-10-26T08:08:07.629Z,83.52
2023-10-26T08:10:39.126Z,83.57
2023-10-26T08:13:07.275Z,83.30
2023-10-26T08:16:10.576Z,82.58
2023-10-26T08:18:26.911Z,82.70
2023-10-26T08:20:55.345Z,82.83
2023-10-26T08:23:23.442Z,82.94
2023-10-26T08:25:51.855Z,82.76
2023-10-26T08:28:20.105Z,82.77
2023-10-26T08:30:49.167Z,81.97
2023-10-26T08:33:17.122Z,81.93
2023-10-26T08:35:51.671Z,81.56
2023-10-26T08:38:19.643Z,81.81
2023-10-26T08:40:51.646Z,82.02
2023-10-26T08:43:20.169Z,82.24
2023-10-26T08:45:48.954Z,81.31
2023-10-26T08:48:18.667Z,80.90
2023-10-26T08:50:48.084Z,79.70
2023-10-26T08:53:16.456Z,79.25
2023-10-26T08:55:44.733Z,79.43
2023-10-26T08:58:12.732Z,79.64
2023-10-26T09:00:42.108Z,79.53
2023-10-26T09:03:10.217Z,79.53
2023-10-26T09:05:52.700Z,80.02
2023-10-26T09:08:20.760Z,79.38
2023-10-26T09:10:48.602Z,78.76
2023-10-26T09:13:23.844Z,78.92
2023-10-26T09:15:52.860Z,78.57
2023-10-26T09:18:23.786Z,79.08
2023-10-26T09:21:02.767Z,79.42
2023-10-26T09:23:32.235Z,79.70
2023-10-26T09:26:01.241Z,79.76
2023-10-26T09:28:29.440Z,79.32
2023-10-26T09:30:59.822Z,77.50
2023-10-26T09:33:28.388Z,77.50
2023-10-26T09:36:10.914Z,77.33
2023-10-26T09:38:40.285Z,77.31
2023-10-26T09:41:10.028Z,77.30
2023-10-26T09:43:38.869Z,77.78
2023-10-26T09:46:07.050Z,77.88
2023-10-26T09:48:35.700Z,78.64
2023-10-26T09:51:05.861Z,78.22
2023-10-26T09:53:37.171Z,76.77
2023-10-26T09:56:05.682Z,77.48
2023-10-26T09:58:37.188Z,77.24
2023-10-26T10:01:25.386Z,76.53
2023-10-26T10:03:53.319Z,77.06
2023-10-26T10:06:39.713Z,77.42
2023-10-26T10:09:07.729Z,77.26
2023-10-26T10:11:36.561Z,77.30
2023-10-26T10:14:04.532Z,77.45
2023-10-26T10:16:35.561Z,77.86
2023-10-26T10:19:33.631Z,77.83
2023-10-26T10:22:03.725Z,77.59
2023-10-26T10:24:40.715Z,75.83
2023-10-26T10:27:13.050Z,75.83
2023-10-26T10:29:41.396Z,75.70
2023-10-26T10:32:12.171Z,74.67
2023-10-26T10:34:45.413Z,72.99
2023-10-26T10:37:23.240Z,72.70
2023-10-26T10:40:10.382Z,73.01
2023-10-26T10:42:42.403Z,72.01
2023-10-26T10:45:12.674Z,71.66
2023-10-26T10:47:44.598Z,70.99
2023-10-26T10:50:19.721Z,70.88
2023-10-26T10:52:49.094Z,69.89
2023-10-26T10:55:35.229Z,69.83
2023-10-26T10:58:04.274Z,70.24
2023-10-26T11:00:38.239Z,70.23
2023-10-26T11:05:38.717Z,68.90
2023-10-26T11:08:08.098Z,69.37
2023-10-26T11:10:36.034Z,69.02
2023-10-26T11:13:04.640Z,69.08
2023-10-26T11:15:33.798Z,69.06
2023-10-26T11:18:02.407Z,68.98
2023-10-26T11:20:48.437Z,69.41
2023-10-26T11:23:19.994Z,69.72
2023-10-26T11:25:48.034Z,69.90
2023-10-26T11:28:16.412Z,70.14
2023-10-26T11:30:51.366Z,70.18
2023-10-26T11:33:32.728Z,70.90
2023-10-26T11:36:01.007Z,70.97
2023-10-26T11:38:29.138Z,71.18
2023-10-26T11:40:57.465Z,71.66
2023-10-26T11:43:35.918Z,71.84
2023-10-26T11:46:07.393Z,72.78
2023-10-26T11:48:35.723Z,73.09
2023-10-26T11:51:07.988Z,73.38
2023-10-26T11:53:37.071Z,73.29
2023-10-26T11:56:05.619Z,73.02
2023-10-26T11:58:35.571Z,73.11
2023-10-26T12:01:04.998Z,73.11
2023-10-26T12:03:33.184Z,73.33
2023-10-26T12:06:01.328Z,73.40
2023-10-26T12:08:29.199Z,72.90
2023-10-26T12:10:57.021Z,73.03
2023-10-26T12:13:25.021Z,73.02
2023-10-26T12:15:53.087Z,72.84
2023-10-26T12:18:21.159Z,72.64
2023-10-26T12:20:49.010Z,72.71
2023-10-26T12:23:16.937Z,72.89
2023-10-26T12:25:47.950Z,74.02
2023-10-26T12:28:25.528Z,74.90
2023-10-26T12:30:54.928Z,75.96
2023-10-26T12:33:23.071Z,77.38
2023-10-26T12:35:52.305Z,78.99
2023-10-26T12:38:24.860Z,79.46
2023-10-26T12:40:52.958Z,80.05
2023-10-26T12:43:20.934Z,78.89
2023-10-26T12:45:48.921Z,78.12
2023-10-26T12:48:17.142Z,79.10
2023-10-26T12:50:45.454Z,80.01
2023-10-26T12:53:13.972Z,80.40
2023-10-26T12:55:42.081Z,79.82
2023-10-26T12:58:10.249Z,79.70
2023-10-26T13:00:38.449Z,80.35
2023-10-26T13:03:06.627Z,80.46
2023-10-26T13:05:34.798Z,81.61
2023-10-26T13:08:02.745Z,82.32
2023-10-26T13:10:32.361Z,82.86
2023-10-26T13:13:00.523Z,82.93
2023-10-26T13:15:28.667Z,81.87
2023-10-26T13:17:56.646Z,78.61
2023-10-26T13:20:27.227Z,77.50
2023-10-26T13:22:55.325Z,76.93
2023-10-26T13:25:24.443Z,76.50
2023-10-26T13:27:52.737Z,77.00
2023-10-26T13:30:21.432Z,76.46
2023-10-26T13:32:49.492Z,76.41
2023-10-26T13:35:17.394Z,77.29
2023-10-26T13:37:45.587Z,77.73
2023-10-26T13:40:13.672Z,76.82
2023-10-26T13:42:41.539Z,77.28
2023-10-26T13:45:09.915Z,78.50
2023-10-26T13:47:37.755Z,78.94
2023-10-26T13:50:06.033Z,78.75
2023-10-26T13:52:34.000Z,78.19
2023-10-26T13:55:02.172Z,77.96
2023-10-26T13:57:30.272Z,77.30
2023-10-26T13:59:58.428Z,78.77
2023-10-26T14:02:26.548Z,77.84
2023-10-26T14:04:54.665Z,76.98
2023-10-26T14:07:24.549Z,77.30
2023-10-26T14:09:53.503Z,77.11
2023-10-26T14:12:21.654Z,77.70
2023-10-26T14:14:49.623Z,77.71
2023-10-26T14:17:17.687Z,78.34
2023-10-26T14:19:46.508Z,78.95
2023-10-26T14:22:14.762Z,79.13
2023-10-26T14:24:44.050Z,79.07
2023-10-26T14:27:12.410Z,79.60
2023-10-26T14:29:40.507Z,80.34
2023-10-26T14:32:08.498Z,80.35
2023-10-26T14:34:38.191Z,80.17
2023-10-26T14:37:06.013Z,80.37
2023-10-26T14:39:33.913Z,80.29
2023-10-26T14:42:01.862Z,80.05
2023-10-26T14:44:29.864Z,80.15
2023-10-26T14:46:57.774Z,79.92
2023-10-26T14:49:25.580Z,80.34
2023-10-26T14:51:53.731Z,80.43
2023-10-26T14:54:21.590Z,80.87
2023-10-26T14:56:49.439Z,80.94
2023-10-26T14:59:17.478Z,80.99
2023-10-26T15:01:45.505Z,81.46
2023-10-26T15:04:13.811Z,81.56
2023-10-26T15:06:41.920Z,81.10
2023-10-26T15:09:10.279Z,81.61
2023-10-26T15:11:56.507Z,82.04
2023-10-26T15:14:25.779Z,82.20
2023-10-26T15:16:54.843Z,82.14
2023-10-26T15:19:23.042Z,82.21
2023-10-26T15:21:51.015Z,82.41
2023-10-26T15:24:19.206Z,82.60
2023-10-26T15:26:47.261Z,82.46
2023-10-26T15:29:15.336Z,83.05
2023-10-26T15:31:43.830Z,83.24
2023-10-26T15:34:11.812Z,83.90
2023-10-26T15:36:39.866Z,84.01
2023-10-26T15:39:09.377Z,84.40
2023-10-26T15:41:41.334Z,84.75
2023-10-26T15:44:10.030Z,84.71
2023-10-26T15:46:37.971Z,84.71
2023-10-26T15:49:33.006Z,84.48
2023-10-26T15:51:55.826Z,85.23
2023-10-26T15:54:23.984Z,85.59
2023-10-26T15:56:51.812Z,85.52
2023-10-26T15:59:19.654Z,86.05
2023-10-26T16:01:47.930Z,86.53
2023-10-26T16:04:15.866Z,86.76
2023-10-26T16:06:44.031Z,87.18
2023-10-26T16:09:11.963Z,87.62
2023-10-26T16:11:40.327Z,87.93
2023-10-26T16:14:08.396Z,88.34
2023-10-26T16:16:36.633Z,88.74
2023-10-26T16:19:05.791Z,89.32
2023-10-26T16:21:33.855Z,88.77
2023-10-26T16:24:01.925Z,88.48
2023-10-26T16:26:29.813Z,88.48
2023-10-26T16:29:00.056Z,88.53
2023-10-26T16:31:28.474Z,88.07
2023-10-26T16:33:56.584Z,87.76
2023-10-26T16:36:25.877Z,88.13
2023-10-26T16:38:53.781Z,88.48
2023-10-26T16:41:21.788Z,88.57
2023-10-26T16:43:50.379Z,88.08
2023-10-26T16:46:19.377Z,87.68
2023-10-26T16:48:47.580Z,87.71
2023-10-26T16:51:16.546Z,88.20
2023-10-26T16:53:44.640Z,88.43
2023-10-26T16:56:12.589Z,88.41
2023-10-26T16:58:40.485Z,88.53
2023-10-26T17:01:12.468Z,88.24
2023-10-26T17:03:40.652Z,88.29
2023-10-26T17:06:11.641Z,88.05
2023-10-26T17:08:39.678Z,87.03
2023-10-26T17:11:11.247Z,87.66
2023-10-26T17:13:39.265Z,88.03
2023-10-26T17:16:08.883Z,88.06
2023-10-26T17:18:37.214Z,87.53
2023-10-26T17:21:05.238Z,86.69
2023-10-26T17:23:35.612Z,86.83
2023-10-26T17:26:03.970Z,86.63
2023-10-26T17:28:31.866Z,86.39
2023-10-26T17:31:06.496Z,86.42
2023-10-26T17:33:35.115Z,86.48
2023-10-26T17:36:05.602Z,87.02
2023-10-26T17:38:34.050Z,86.63
2023-10-26T17:41:08.778Z,86.77
2023-10-26T17:43:39.624Z,87.85
2023-10-26T17:46:08.166Z,86.94
2023-10-26T17:48:37.565Z,85.95
2023-10-26T17:51:09.261Z,86.14
2023-10-26T17:53:39.380Z,85.64
2023-10-26T17:56:10.277Z,84.73
2023-10-26T17:58:38.293Z,84.78
2023-10-26T18:01:10.357Z,85.52
2023-10-26T18:03:39.910Z,86.06
2023-10-26T18:06:08.048Z,86.55
2023-10-26T18:08:36.827Z,87.25
2023-10-26T18:11:05.523Z,88.10
2023-10-26T18:13:35.522Z,88.15
2023-10-26T18:16:08.764Z,88.45
2023-10-26T18:18:37.796Z,88.18
2023-10-26T18:21:07.021Z,88.08
2023-10-26T18:23:38.235Z,87.52
2023-10-26T18:26:12.314Z,87.03
2023-10-26T18:28:41.638Z,87.13
2023-10-26T18:31:14.575Z,87.27
2023-10-26T18:33:47.016Z,87.39
2023-10-26T18:36:15.935Z,87.07
2023-10-26T18:38:59.862Z,87.06
2023-10-26T18:41:29.874Z,87.20
2023-10-26T18:43:57.788Z,86.72
2023-10-26T18:46:28.820Z,86.57
2023-10-26T18:49:03.937Z,86.93
2023-10-26T18:51:33.711Z,87.59
2023-10-26T18:54:04.634Z,88.59
2023-10-26T18:56:32.663Z,89.39
2023-10-26T18:59:00.823Z,89.92
2023-10-26T19:01:28.750Z,90.39
2023-10-26T19:04:02.669Z,90.65
2023-10-26T19:06:31.478Z,90.68
2023-10-26T19:08:59.940Z,90.63
2023-10-26T19:11:29.200Z,90.39
2023-10-26T19:13:57.438Z,90.33
2023-10-26T19:16:25.704Z,89.99
2023-10-26T19:18:53.966Z,89.45
2023-10-26T19:21:22.217Z,89.20
2023-10-26T19:23:50.729Z,88.90
2023-10-26T19:26:18.785Z,88.56
2023-10-26T19:28:47.019Z,88.60
2023-10-26T19:31:18.617Z,88.73
2023-10-26T19:33:50.663Z,88.50
2023-10-26T19:36:19.634Z,87.74
2023-10-26T19:38:50.065Z,87.39
2023-10-26T19:41:18.369Z,87.06
2023-10-26T19:43:46.409Z,86.38
2023-10-26T19:46:14.671Z,86.31
2023-10-26T19:48:42.914Z,86.26
2023-10-26T19:51:11.017Z,85.74
2023-10-26T19:53:39.079Z,85.15
2023-10-26T19:56:07.690Z,85.31
2023-10-26T19:58:38.570Z,85.20
2023-10-26T20:01:14.034Z,85.00
2023-10-26T20:03:42.280Z,84.62
2023-10-26T20:06:10.454Z,84.87
2023-10-26T20:08:38.588Z,84.57
2023-10-26T20:11:10.607Z,84.63
2023-10-26T20:13:38.745Z,85.06
2023-10-26T20:16:06.795Z,85.82
2023-10-26T20:18:43.309Z,86.37
2023-10-26T20:21:11.183Z,86.41
2023-10-26T20:23:39.229Z,86.49
2023-10-26T20:26:07.118Z,86.32
2023-10-26T20:28:35.760Z,86.24
2023-10-26T20:31:05.055Z,86.16
2023-10-26T20:33:33.274Z,85.70
2023-10-26T20:36:01.510Z,85.33
2023-10-26T20:38:29.403Z,85.17
2023-10-26T20:40:57.236Z,84.59
2023-10-26T20:43:25.383Z,84.54
2023-10-26T20:45:57.931Z,84.41
2023-10-26T20:48:26.665Z,84.28
2023-10-26T20:50:55.968Z,83.87
2023-10-26T20:53:29.232Z,83.34
2023-10-26T20:56:00.747Z,83.06
2023-10-26T20:58:29.511Z,82.59
2023-10-26T21:00:58.116Z,82.39
2023-10-26T21:03:26.578Z,82.87
2023-10-26T21:05:54.864Z,83.38
2023-10-26T21:08:23.348Z,83.71
2023-10-26T21:10:51.439Z,84.03
2023-10-26T21:13:19.395Z,84.14
2023-10-26T21:15:48.137Z,84.22
2023-10-26T21:18:16.142Z,85.17
2023-10-26T21:20:43.919Z,85.72
2023-10-26T21:23:11.776Z,86.28
2023-10-26T21:25:39.646Z,86.72
2023-10-26T21:28:08.540Z,87.07
2023-10-26T21:30:39.693Z,87.28
2023-10-26T21:33:07.547Z,87.51
2023-10-26T21:35:36.753Z,87.17
2023-10-26T21:38:05.773Z,86.90
2023-10-26T21:40:38.224Z,86.66
2023-10-26T21:43:06.511Z,86.88
2023-10-26T21:45:37.741Z,86.87
2023-10-26T21:48:06.099Z,86.46
2023-10-26T21:50:35.048Z,86.38
2023-10-26T21:53:03.192Z,86.93
2023-10-26T21:55:31.247Z,87.45
2023-10-26T21:57:59.112Z,87.90
2023-10-26T22:00:29.638Z,87.33
2023-10-26T22:02:57.946Z,88.00
2023-10-26T22:05:27.412Z,88.97
2023-10-26T22:07:55.603Z,89.00
2023-10-26T22:10:23.558Z,88.53
2023-10-26T22:12:51.545Z,87.87
2023-10-26T22:15:19.821Z,87.50
2023-10-26T22:17:48.057Z,87.54
2023-10-26T22:20:16.783Z,87.74
2023-10-26T22:22:44.853Z,86.97
2023-10-26T22:25:12.957Z,86.86
2023-10-26T22:27:41.549Z,86.17
2023-10-26T22:30:09.896Z,86.00
2023-10-26T22:32:37.743Z,86.53
2023-10-26T22:35:05.886Z,87.11
2023-10-26T22:37:34.092Z,87.26
2023-10-26T22:40:02.082Z,87.61
2023-10-26T22:42:30.248Z,88.05
2023-10-26T22:44:58.372Z,87.93
2023-10-26T22:47:26.415Z,88.45
2023-10-26T22:49:55.640Z,88.77
2023-10-26T22:52:23.620Z,88.54
2023-10-26T22:54:51.698Z,88.22
2023-10-26T22:57:20.212Z,87.56
2023-10-26T22:59:48.342Z,86.50
2023-10-26T23:02:16.174Z,86.18
2023-10-26T23:04:44.664Z,85.76
2023-10-26T23:07:12.690Z,85.61
2023-10-26T23:09:40.883Z,85.22
2023-10-26T23:12:09.656Z,85.10
2023-10-26T23:14:37.475Z,85.12
2023-10-26T23:17:05.506Z,85.02
2023-10-26T23:19:33.410Z,85.03
2023-10-26T23:22:03.093Z,85.12
2023-10-26T23:24:31.177Z,84.83
2023-10-26T23:26:59.117Z,84.30
2023-10-26T23:29:29.060Z,84.66
2023-10-26T23:31:56.897Z,84.57
2023-10-26T23:34:24.905Z,84.38
2023-10-26T23:36:53.150Z,84.25
2023-10-26T23:39:20.948Z,83.82
2023-10-26T23:41:48.842Z,84.27
2023-10-26T23:44:16.870Z,84.55
2023-10-26T23:46:44.671Z,84.10
2023-10-26T23:49:12.640Z,83.75
2023-10-26T23:51:40.669Z,84.30
2023-10-26T23:54:09.868Z,84.48
2023-10-26T23:56:38.469Z,83.91
2023-10-26T23:59:06.311Z,83.61
